Погода METAR - Красноярск

Кемерово, Абакан, Красноярск, Новосибирск
Код METAR: UNKL 161530Z 00000MPS 9000 NSC 06/06 Q1012 R29/190060 NOSIG RMK QFE734

Погода - Сейчас

Время: 2021-05-16 22:30, местное
Направление ветра: Штиль
Скорость ветра: 0 м/с
Видимость:
Температура: 6°C
Точка росы: 6°C
Атмосферное давление: 1012 гПа

Архив погоды

Время, местное Направление Скорость, м/с Температура, °C Точка росы, °C Давление, гПа
2021-05-16 22:30 Штиль 0 6 6 1012
2021-05-16 21:00 З (270°) 2 8 7 1012
2021-05-16 13:00 В (100°) 1 9 8 1013
2021-05-16 11:00 Штиль 0 8 7 1014
2021-05-13 20:00 ЮВ (130°) 3 14 -6 1013
2021-05-13 07:30 ВСВ (70°) 1 7 -6 1016
2021-05-13 04:30 ЗЮЗ (260°) 1 -2 -7 1016
2021-05-13 01:00 ЗЮЗ (260°) 1 2 -7 1015
2021-05-11 15:00 В (100°) 6 19 -3 1015
2021-05-11 14:30 ВЮВ (110°) 5 19 -3 1015
2021-05-11 01:30 Штиль 0 2 -2 1019
2021-05-09 04:30 ЗЮЗ (260°) 3 3 2 1012
2021-05-08 12:00 ЗЮЗ (260°) 5 10 1 1012
2021-05-07 21:00 СЗ (300°) 6, порывы до 11 16 3 1006
2021-05-06 06:00 ЗЮЗ (260°) 7 12 0 1010
2021-05-05 17:30 ЮЗ (210°) 4 7 0 1017
2021-05-04 21:30 З (270°) 6 3 -7 1017
2021-05-04 06:00 ЮЗ (210°) 6 10 -5 1009
2021-05-02 18:00 ЗСЗ (290°) 9 9 -3 1023
2021-05-02 03:00 Переменный 1 4 -1 1014
2021-05-01 22:00 З (280°) 2 5 -3 1012
2021-05-01 02:30 Переменный 1 4 -3 1010
2021-04-30 23:30 Переменный 1 3 -2 1009
2021-04-30 02:30 ЮВ (120°) 3 3 1 1007
2021-04-28 15:30 Ю (190°) 6 13 2 1009
2021-04-28 09:00 В (80°) 3 8 4 1014
2021-04-28 04:30 ЮВ (120°) 1 1 1 1015
2021-04-26 18:00 ЗСЗ (290°) 4 10 -2 1024
2021-04-25 09:30 ЗСЗ (290°) 4 1 -1 1025
2021-04-24 22:30 ЗСЗ (290°) 1 -2 -4 1025
2021-04-23 23:30 З (280°) 2 -1 -9 1037
2021-04-23 00:00 ЗСЗ (290°) 1 -5 -10 1040
2021-04-22 22:00 ЗСЗ (290°) 1 -2 -9 1039
2021-04-20 20:30 ЗЮЗ (240°) 3 -4 -11 1018
2021-04-20 16:30 ЗЮЗ (260°) 8, порывы до 16 -3 -12 1016
2021-04-20 14:30 ЗЮЗ (250°) 7 -4 -13 1016
2021-04-13 09:00 ЗСЗ (290°) 6 2 1 1020
2021-04-11 12:30 ВЮВ (110°) 3 6 -11 1038
2021-04-11 02:00 З (280°) 1 -5 -11 1039
2021-04-10 10:00 СВ (40°) 2 5 -4 1033
2021-04-09 05:30 ЗСЗ (290°) 2 -3 -3 1028
2021-04-07 23:30 Штиль 0 2 0 1021
2021-04-07 21:00 Ю (180°) 2 2 1 1020
2021-04-07 10:00 ЗЮЗ (260°) 4 5 -3 1023
2021-04-07 09:30 ЗЮЗ (250°) 3 5 -3 1023
2021-04-07 04:00 ЗСЗ (290°) 4 4 1 1022
2021-04-07 01:00 ЮЗ (230°) 3 7 2 1021
2021-04-04 22:30 Штиль 0 -1 -2 1023